Time;durP1;ratioP1;P1;durP2;ratioP2;P2;SDS_P1;SDS_P2;PMS_P1;PMS_P2;Temp;Humidity;BMP_temperature;BMP_pressure;BME280_temperature;BME280_humidity;BME280_pressure;Samples;Min_cycle;Max_cycle;Signal;HPM_P1;HPM_P2
2023/05/12 00:01:22;;;;;;;57.70;35.70;;;;;;;;;;5015664;28;20458;-68
2023/05/12 00:03:52;;;;;;;52.50;33.87;;;;;;;;;;5015270;28;20542;-69
2023/05/12 00:06:19;;;;;;;55.00;35.70;;;;;;;;;;5016070;28;20462;-69
2023/05/12 00:08:46;;;;;;;66.40;38.43;;;;;;;;;;5015501;28;20460;-69
2023/05/12 00:11:15;;;;;;;63.57;36.70;;;;;;;;;;5014158;28;20454;-68
2023/05/12 00:13:42;;;;;;;58.80;35.67;;;;;;;;;;5015200;28;20451;-69
2023/05/12 00:16:10;;;;;;;61.23;34.93;;;;;;;;;;5014992;28;20524;-69
2023/05/12 00:18:37;;;;;;;67.77;37.77;;;;;;;;;;5015354;28;20477;-68
2023/05/12 00:21:04;;;;;;;61.17;34.63;;;;;;;;;;5015212;28;20440;-69
2023/05/12 00:23:31;;;;;;;61.70;34.40;;;;;;;;;;5014746;28;20536;-69
2023/05/12 00:25:58;;;;;;;57.70;36.37;;;;;;;;;;5014789;28;20446;-69
2023/05/12 00:28:27;;;;;;;59.97;37.63;;;;;;;;;;5014717;28;20451;-68
2023/05/12 00:30:54;;;;;;;61.83;37.40;;;;;;;;;;5014742;28;20438;-68
2023/05/12 00:33:21;;;;;;;59.57;35.20;;;;;;;;;;5014551;28;21033;-68
2023/05/12 00:35:49;;;;;;;64.33;36.13;;;;;;;;;;5014708;28;20798;-68
2023/05/12 00:38:16;;;;;;;58.43;35.40;;;;;;;;;;5014827;28;20818;-68
2023/05/12 00:40:43;;;;;;;65.00;37.97;;;;;;;;;;5015084;28;20790;-68
2023/05/12 00:43:10;;;;;;;69.80;36.47;;;;;;;;;;5014801;28;20805;-69
2023/05/12 00:45:39;;;;;;;60.07;35.20;;;;;;;;;;5014886;28;20785;-68
2023/05/12 00:48:07;;;;;;;62.70;36.87;;;;;;;;;;5014656;28;20541;-68
2023/05/12 00:50:35;;;;;;;64.10;36.47;;;;;;;;;;5014662;28;20446;-68
2023/05/12 00:53:02;;;;;;;64.03;35.50;;;;;;;;;;5014608;28;20939;-68
2023/05/12 00:55:30;;;;;;;64.90;38.17;;;;;;;;;;5014548;28;20441;-69
2023/05/12 00:57:57;;;;;;;62.23;35.10;;;;;;;;;;5014526;28;20552;-68
2023/05/12 01:00:25;;;;;;;59.50;33.80;;;;;;;;;;5014492;28;20445;-68
2023/05/12 01:02:56;;;;;;;61.17;35.43;;;;;;;;;;5013964;28;20452;-68
2023/05/12 01:05:23;;;;;;;67.10;38.10;;;;;;;;;;5014928;28;20456;-68
2023/05/12 01:07:50;;;;;;;64.40;35.93;;;;;;;;;;5013954;28;20467;-69
2023/05/12 01:10:18;;;;;;;63.17;35.60;;;;;;;;;;5014174;28;20437;-68
2023/05/12 01:12:46;;;;;;;65.47;36.07;;;;;;;;;;5014685;28;20458;-68
2023/05/12 01:15:13;;;;;;;60.13;36.47;;;;;;;;;;5014220;28;20460;-67
2023/05/12 01:17:42;;;;;;;59.70;35.53;;;;;;;;;;5014542;28;20457;-69
2023/05/12 01:20:12;;;;;;;51.03;32.80;;;;;;;;;;5014152;28;20449;-69
2023/05/12 01:22:40;;;;;;;56.27;34.77;;;;;;;;;;5014133;28;20438;-69
2023/05/12 01:25:10;;;;;;;53.50;32.10;;;;;;;;;;5014062;28;20786;-69
2023/05/12 01:27:40;;;;;;;61.87;33.70;;;;;;;;;;5013858;28;20924;-68
2023/05/12 01:30:08;;;;;;;53.13;34.20;;;;;;;;;;5013983;28;20454;-68
2023/05/12 01:32:35;;;;;;;53.20;35.87;;;;;;;;;;5013673;28;20449;-69
2023/05/12 01:35:02;;;;;;;54.77;33.83;;;;;;;;;;5013589;28;20945;-68
2023/05/12 01:37:29;;;;;;;45.43;31.57;;;;;;;;;;5013837;28;20488;-69
2023/05/12 01:39:56;;;;;;;52.70;33.00;;;;;;;;;;5013935;28;20498;-69
2023/05/12 01:42:24;;;;;;;47.67;32.97;;;;;;;;;;5014036;28;20449;-68
2023/05/12 01:44:52;;;;;;;48.43;30.03;;;;;;;;;;5013748;28;20570;-69
2023/05/12 01:47:20;;;;;;;48.40;30.27;;;;;;;;;;5013552;28;20442;-68
2023/05/12 01:49:47;;;;;;;42.57;29.83;;;;;;;;;;5013755;28;20465;-69
2023/05/12 01:52:16;;;;;;;50.50;30.73;;;;;;;;;;5013779;28;20509;-69
2023/05/12 01:54:43;;;;;;;52.17;32.27;;;;;;;;;;5013895;28;20475;-68
2023/05/12 01:57:10;;;;;;;40.27;28.77;;;;;;;;;;5013456;28;20452;-69
2023/05/12 01:59:37;;;;;;;45.40;30.07;;;;;;;;;;5013212;28;20492;-69
2023/05/12 02:02:06;;;;;;;44.93;30.23;;;;;;;;;;5014195;28;20473;-69
2023/05/12 02:04:33;;;;;;;40.67;28.07;;;;;;;;;;5013237;28;20450;-69
2023/05/12 02:07:00;;;;;;;42.60;28.97;;;;;;;;;;5014032;28;20488;-69
2023/05/12 02:09:28;;;;;;;40.60;27.57;;;;;;;;;;5013577;28;20457;-69
2023/05/12 02:11:55;;;;;;;43.03;29.47;;;;;;;;;;5013463;28;20446;-69
2023/05/12 02:14:22;;;;;;;42.17;29.40;;;;;;;;;;5013534;28;20453;-69
2023/05/12 02:16:51;;;;;;;40.53;28.30;;;;;;;;;;5013977;28;20446;-69
2023/05/12 02:19:20;;;;;;;43.10;28.70;;;;;;;;;;5013961;28;20530;-69
2023/05/12 02:21:47;;;;;;;51.93;27.70;;;;;;;;;;5013149;28;20438;-69
2023/05/12 02:24:15;;;;;;;37.87;26.27;;;;;;;;;;5013110;28;20450;-69
2023/05/12 02:26:42;;;;;;;37.87;28.13;;;;;;;;;;5013154;28;20444;-69
2023/05/12 02:29:10;;;;;;;36.73;25.80;;;;;;;;;;5013653;28;20804;-69
2023/05/12 02:31:37;;;;;;;41.30;27.40;;;;;;;;;;5013531;28;20437;-69
2023/05/12 02:34:05;;;;;;;35.33;25.77;;;;;;;;;;5013994;28;20460;-69
2023/05/12 02:36:34;;;;;;;34.53;23.40;;;;;;;;;;5016768;28;20928;-69
2023/05/12 02:39:01;;;;;;;38.20;25.30;;;;;;;;;;5017383;28;20488;-69
2023/05/12 02:41:28;;;;;;;35.77;24.33;;;;;;;;;;5017064;28;20452;-69
2023/05/12 02:43:56;;;;;;;38.83;22.77;;;;;;;;;;5017264;28;20446;-71
2023/05/12 02:46:23;;;;;;;35.47;25.27;;;;;;;;;;5017055;28;20441;-69
2023/05/12 02:48:50;;;;;;;28.40;21.83;;;;;;;;;;5017065;28;20775;-68
2023/05/12 02:51:17;;;;;;;29.70;22.27;;;;;;;;;;5016959;28;20813;-69
2023/05/12 02:53:46;;;;;;;29.60;20.83;;;;;;;;;;5016852;28;20448;-69
2023/05/12 02:56:13;;;;;;;27.77;21.20;;;;;;;;;;5016725;28;20525;-69
2023/05/12 02:58:40;;;;;;;24.97;20.70;;;;;;;;;;5016418;28;20477;-69
2023/05/12 03:01:07;;;;;;;22.40;19.13;;;;;;;;;;5016685;28;20445;-69
2023/05/12 03:03:35;;;;;;;28.33;20.67;;;;;;;;;;5017102;28;20453;-69
2023/05/12 03:06:03;;;;;;;22.90;19.20;;;;;;;;;;5016836;28;20446;-69
2023/05/12 03:08:30;;;;;;;23.20;19.37;;;;;;;;;;5016344;28;20444;-69
2023/05/12 03:10:59;;;;;;;26.67;18.30;;;;;;;;;;5016433;28;20446;-69
2023/05/12 03:13:26;;;;;;;25.80;18.37;;;;;;;;;;5016232;28;20453;-69
2023/05/12 03:15:53;;;;;;;19.83;16.67;;;;;;;;;;5016096;28;20457;-69
2023/05/12 03:18:20;;;;;;;22.03;17.73;;;;;;;;;;5016144;28;20960;-68
2023/05/12 03:20:48;;;;;;;20.00;16.17;;;;;;;;;;5016327;28;20547;-69
2023/05/12 03:23:15;;;;;;;22.33;16.77;;;;;;;;;;5016384;28;20453;-68
2023/05/12 03:25:42;;;;;;;18.60;15.10;;;;;;;;;;5016355;28;20450;-69
2023/05/12 03:28:11;;;;;;;15.73;14.10;;;;;;;;;;5016308;28;20558;-69
2023/05/12 03:30:39;;;;;;;16.10;14.50;;;;;;;;;;5016133;28;20444;-68
2023/05/12 03:33:06;;;;;;;17.00;14.37;;;;;;;;;;5016203;28;20452;-68
2023/05/12 03:35:33;;;;;;;14.23;12.57;;;;;;;;;;5015756;28;20450;-69
2023/05/12 03:38:00;;;;;;;16.17;12.70;;;;;;;;;;5015725;28;20476;-69
2023/05/12 03:40:27;;;;;;;15.50;13.13;;;;;;;;;;5015696;28;20477;-68
2023/05/12 03:42:54;;;;;;;14.10;12.60;;;;;;;;;;5016094;28;20596;-68
2023/05/12 03:45:23;;;;;;;13.70;12.20;;;;;;;;;;5014965;28;20444;-69
2023/05/12 03:47:50;;;;;;;18.70;12.50;;;;;;;;;;5015911;28;20455;-69
2023/05/12 03:50:18;;;;;;;15.10;12.30;;;;;;;;;;5015471;28;20462;-68
2023/05/12 03:52:45;;;;;;;11.57;10.37;;;;;;;;;;5016199;28;20470;-68
2023/05/12 03:55:12;;;;;;;12.30;11.00;;;;;;;;;;5015794;28;20452;-68
2023/05/12 03:57:39;;;;;;;12.73;11.47;;;;;;;;;;5016081;28;20443;-68
2023/05/12 04:00:07;;;;;;;12.67;11.37;;;;;;;;;;5015606;28;20480;-69
2023/05/12 04:02:36;;;;;;;12.03;10.70;;;;;;;;;;5014835;28;20491;-68
2023/05/12 04:05:06;;;;;;;13.80;11.70;;;;;;;;;;5015119;28;20532;-69
2023/05/12 04:07:34;;;;;;;10.77;9.67;;;;;;;;;;5015772;28;20797;-68
2023/05/12 04:10:01;;;;;;;11.47;10.27;;;;;;;;;;5015253;28;20469;-69
2023/05/12 04:12:28;;;;;;;12.40;11.10;;;;;;;;;;5015253;28;20478;-68
2023/05/12 04:14:56;;;;;;;11.60;10.40;;;;;;;;;;5015545;28;20446;-69
2023/05/12 04:17:23;;;;;;;14.60;11.47;;;;;;;;;;5015226;28;20531;-68
2023/05/12 04:19:52;;;;;;;11.67;10.57;;;;;;;;;;5014993;28;20486;-67
2023/05/12 04:22:19;;;;;;;11.37;10.30;;;;;;;;;;5014760;28;20480;-68
2023/05/12 04:24:46;;;;;;;11.33;10.23;;;;;;;;;;5014770;28;20460;-67
2023/05/12 04:27:13;;;;;;;13.90;10.40;;;;;;;;;;5014682;28;20455;-68
2023/05/12 04:29:41;;;;;;;12.10;10.90;;;;;;;;;;5015075;28;20459;-70
2023/05/12 04:32:08;;;;;;;12.83;11.20;;;;;;;;;;5014474;28;20545;-68
2023/05/12 04:34:35;;;;;;;15.80;12.83;;;;;;;;;;5014810;28;20449;-68
2023/05/12 04:37:04;;;;;;;12.57;11.37;;;;;;;;;;5014134;28;20484;-68
2023/05/12 04:39:31;;;;;;;12.00;10.80;;;;;;;;;;5014352;28;20471;-76
2023/05/12 04:42:00;;;;;;;12.93;11.67;;;;;;;;;;5014324;28;20474;-71
2023/05/12 04:44:28;;;;;;;12.73;11.53;;;;;;;;;;5014801;28;20444;-70
2023/05/12 04:46:55;;;;;;;12.53;11.20;;;;;;;;;;5014255;28;20484;-71
2023/05/12 04:49:22;;;;;;;13.67;12.27;;;;;;;;;;5014787;28;20471;-71
2023/05/12 04:51:49;;;;;;;13.93;12.40;;;;;;;;;;5014440;28;20874;-71
2023/05/12 04:54:18;;;;;;;14.10;11.80;;;;;;;;;;5014227;28;20449;-71
2023/05/12 04:56:45;;;;;;;13.10;11.40;;;;;;;;;;5014160;28;20454;-71
2023/05/12 04:59:14;;;;;;;12.13;10.93;;;;;;;;;;5014398;28;20455;-71
2023/05/12 05:01:41;;;;;;;11.10;10.07;;;;;;;;;;5013869;28;20455;-72
2023/05/12 05:04:08;;;;;;;11.93;10.73;;;;;;;;;;5014383;28;20497;-71
2023/05/12 05:06:35;;;;;;;11.80;10.70;;;;;;;;;;5014440;28;20451;-71
2023/05/12 05:09:03;;;;;;;11.50;10.50;;;;;;;;;;5013990;28;20446;-72
2023/05/12 05:11:31;;;;;;;12.07;9.70;;;;;;;;;;5013861;28;20936;-72
2023/05/12 05:13:58;;;;;;;12.40;9.83;;;;;;;;;;5014003;28;20455;-72
2023/05/12 05:16:26;;;;;;;12.53;11.23;;;;;;;;;;5013782;28;20982;-72
2023/05/12 05:18:53;;;;;;;12.47;11.13;;;;;;;;;;5014163;28;20446;-71
2023/05/12 05:21:20;;;;;;;11.27;9.77;;;;;;;;;;5013617;28;20573;-73
2023/05/12 05:23:47;;;;;;;11.13;10.03;;;;;;;;;;5014152;28;20460;-71
2023/05/12 05:26:14;;;;;;;11.10;9.00;;;;;;;;;;5013933;28;20452;-71
2023/05/12 05:28:43;;;;;;;11.37;10.27;;;;;;;;;;5013610;28;21002;-71
2023/05/12 05:31:15;;;;;;;10.90;9.80;;;;;;;;;;5014053;28;20480;-70
2023/05/12 05:33:42;;;;;;;11.03;9.97;;;;;;;;;;5014143;28;20796;-71
2023/05/12 05:36:10;;;;;;;10.53;9.53;;;;;;;;;;5014075;28;20489;-71
2023/05/12 05:38:37;;;;;;;14.00;11.17;;;;;;;;;;5013860;28;20485;-71
2023/05/12 05:41:04;;;;;;;11.27;10.17;;;;;;;;;;5013474;28;20500;-70
2023/05/12 05:43:31;;;;;;;12.20;10.87;;;;;;;;;;5013751;28;20442;-71
2023/05/12 05:46:00;;;;;;;9.77;8.60;;;;;;;;;;5014041;28;20472;-71
2023/05/12 05:48:27;;;;;;;11.40;9.27;;;;;;;;;;5013368;28;20451;-71
2023/05/12 05:50:55;;;;;;;9.03;8.23;;;;;;;;;;5013772;28;20795;-71
2023/05/12 05:53:22;;;;;;;9.17;8.27;;;;;;;;;;5013598;28;20537;-72
2023/05/12 05:55:49;;;;;;;9.10;8.20;;;;;;;;;;5014004;28;20450;-71
2023/05/12 05:58:17;;;;;;;7.83;7.03;;;;;;;;;;5013488;28;20911;-71
2023/05/12 06:00:44;;;;;;;9.30;8.40;;;;;;;;;;5013510;28;20482;-72
2023/05/12 06:03:12;;;;;;;8.63;7.83;;;;;;;;;;5013425;28;20559;-71
2023/05/12 06:05:41;;;;;;;9.40;8.07;;;;;;;;;;5013197;28;20884;-71
2023/05/12 06:08:11;;;;;;;10.57;9.07;;;;;;;;;;5013798;28;20457;-73
2023/05/12 06:10:39;;;;;;;9.10;8.20;;;;;;;;;;5017571;28;20446;-71
2023/05/12 06:13:07;;;;;;;12.10;8.27;;;;;;;;;;5017553;28;20450;-71
2023/05/12 06:15:34;;;;;;;7.23;6.60;;;;;;;;;;5017888;28;20451;-71
2023/05/12 06:18:01;;;;;;;8.37;6.73;;;;;;;;;;5017460;28;20876;-70
2023/05/12 06:20:30;;;;;;;7.73;6.97;;;;;;;;;;5017270;28;20504;-70
2023/05/12 06:22:57;;;;;;;9.27;8.37;;;;;;;;;;5016862;28;20449;-71
2023/05/12 06:25:24;;;;;;;8.03;7.10;;;;;;;;;;5017232;28;20446;-72
2023/05/12 06:27:52;;;;;;;8.87;7.97;;;;;;;;;;5016921;28;20448;-71
2023/05/12 06:30:19;;;;;;;9.30;7.77;;;;;;;;;;5016940;28;20508;-71
2023/05/12 06:32:46;;;;;;;8.23;7.37;;;;;;;;;;5017161;28;20442;-72
2023/05/12 06:35:14;;;;;;;7.83;7.03;;;;;;;;;;5017204;28;20442;-71
2023/05/12 06:37:43;;;;;;;8.30;7.13;;;;;;;;;;5016945;28;20470;-71
2023/05/12 06:40:11;;;;;;;7.37;6.77;;;;;;;;;;5017039;28;20481;-70
2023/05/12 06:42:38;;;;;;;8.37;7.53;;;;;;;;;;5016691;28;21011;-71
2023/05/12 06:45:05;;;;;;;8.33;7.53;;;;;;;;;;5017083;28;20811;-70
2023/05/12 06:47:33;;;;;;;7.37;6.67;;;;;;;;;;5016825;28;20490;-71
2023/05/12 06:50:00;;;;;;;7.87;6.97;;;;;;;;;;5016853;28;20450;-71
2023/05/12 06:52:27;;;;;;;6.13;5.63;;;;;;;;;;5016753;28;20453;-71
2023/05/12 06:54:56;;;;;;;6.60;6.00;;;;;;;;;;5016809;28;20472;-70
2023/05/12 06:57:23;;;;;;;6.60;6.00;;;;;;;;;;5016759;28;20491;-72
2023/05/12 06:59:50;;;;;;;6.60;6.10;;;;;;;;;;5016360;28;20455;-71
2023/05/12 07:02:17;;;;;;;7.13;5.90;;;;;;;;;;5016436;28;20951;-71
2023/05/12 07:04:44;;;;;;;7.57;6.10;;;;;;;;;;5016593;28;20446;-70
2023/05/12 07:07:11;;;;;;;6.70;6.20;;;;;;;;;;5016661;28;20823;-71
2023/05/12 07:09:41;;;;;;;6.87;6.27;;;;;;;;;;5016405;28;20454;-71
2023/05/12 07:12:09;;;;;;;7.07;6.40;;;;;;;;;;5016684;28;20446;-70
2023/05/12 07:14:37;;;;;;;5.77;5.27;;;;;;;;;;5015998;28;21014;-71
2023/05/12 07:17:04;;;;;;;6.60;6.00;;;;;;;;;;5016410;28;20447;-70
2023/05/12 07:19:39;;;;;;;7.37;6.67;;;;;;;;;;5015926;28;20455;-71
2023/05/12 07:22:06;;;;;;;7.63;6.23;;;;;;;;;;5016243;28;20521;-71
2023/05/12 07:24:33;;;;;;;5.97;5.47;;;;;;;;;;5016274;28;20817;-71
2023/05/12 07:27:01;;;;;;;6.40;5.80;;;;;;;;;;5016206;28;20453;-71
2023/05/12 07:29:30;;;;;;;6.60;6.03;;;;;;;;;;5016063;28;20455;-71
2023/05/12 07:31:57;;;;;;;8.07;5.30;;;;;;;;;;5015811;28;20972;-71
2023/05/12 07:34:24;;;;;;;8.70;6.60;;;;;;;;;;5015693;28;20453;-71
2023/05/12 07:36:51;;;;;;;7.13;5.67;;;;;;;;;;5015784;28;20867;-71
2023/05/12 07:39:22;;;;;;;6.10;5.57;;;;;;;;;;5016027;28;20778;-71
2023/05/12 07:41:49;;;;;;;5.73;5.27;;;;;;;;;;5016007;28;20503;-71
2023/05/12 07:44:17;;;;;;;5.53;5.03;;;;;;;;;;5015432;28;20443;-71
2023/05/12 07:46:45;;;;;;;5.40;4.90;;;;;;;;;;5015471;28;20445;-72
2023/05/12 07:49:12;;;;;;;6.07;5.47;;;;;;;;;;5015731;28;20505;-71
2023/05/12 07:51:39;;;;;;;5.60;5.00;;;;;;;;;;5015450;28;20451;-71
2023/05/12 07:54:07;;;;;;;6.77;6.17;;;;;;;;;;5015919;28;20798;-71
2023/05/12 07:56:35;;;;;;;6.17;5.33;;;;;;;;;;5016168;28;20435;-71
2023/05/12 07:59:03;;;;;;;4.57;4.17;;;;;;;;;;5015146;28;20451;-71
2023/05/12 08:01:30;;;;;;;5.23;4.50;;;;;;;;;;5015518;28;20475;-71
2023/05/12 08:03:58;;;;;;;5.43;4.90;;;;;;;;;;5015386;28;20444;-71
2023/05/12 08:06:25;;;;;;;5.80;4.43;;;;;;;;;;5015037;28;20970;-71
2023/05/12 08:08:54;;;;;;;6.33;5.73;;;;;;;;;;5015633;28;20447;-71
2023/05/12 08:11:22;;;;;;;4.87;4.37;;;;;;;;;;5015305;28;20549;-72
2023/05/12 08:13:49;;;;;;;4.50;4.07;;;;;;;;;;5014949;28;20443;-71
2023/05/12 08:16:16;;;;;;;7.03;4.97;;;;;;;;;;5015001;28;20493;-71
2023/05/12 08:18:43;;;;;;;7.80;4.60;;;;;;;;;;5015182;28;20450;-71
2023/05/12 08:21:12;;;;;;;4.47;4.07;;;;;;;;;;5015060;28;20482;-71
2023/05/12 08:23:39;;;;;;;4.60;4.20;;;;;;;;;;5014663;28;20522;-71
2023/05/12 08:26:06;;;;;;;4.50;4.20;;;;;;;;;;5015220;28;20478;-71
2023/05/12 08:28:33;;;;;;;6.70;5.10;;;;;;;;;;5014639;28;20453;-71
2023/05/12 08:31:01;;;;;;;4.57;4.20;;;;;;;;;;5014284;28;21000;-71
2023/05/12 08:33:28;;;;;;;4.87;4.47;;;;;;;;;;5014051;28;20444;-71
2023/05/12 08:35:55;;;;;;;4.67;4.27;;;;;;;;;;5014722;28;20507;-71
2023/05/12 08:38:24;;;;;;;5.20;4.70;;;;;;;;;;5014952;28;20478;-71
2023/05/12 08:40:57;;;;;;;4.60;4.20;;;;;;;;;;5014314;28;20476;-71
2023/05/12 08:43:25;;;;;;;3.70;3.40;;;;;;;;;;5014964;28;20534;-70
2023/05/12 08:45:56;;;;;;;5.87;5.27;;;;;;;;;;5014514;28;20478;-70
2023/05/12 08:48:26;;;;;;;12.70;7.57;;;;;;;;;;5014712;28;20438;-70
2023/05/12 08:50:54;;;;;;;4.83;4.37;;;;;;;;;;5014743;28;20443;-70
2023/05/12 08:53:22;;;;;;;4.43;4.03;;;;;;;;;;5014301;28;20447;-70
2023/05/12 08:55:51;;;;;;;5.73;3.57;;;;;;;;;;5014550;28;20855;-71
2023/05/12 08:58:18;;;;;;;3.90;3.50;;;;;;;;;;5014473;28;20518;-70
2023/05/12 09:00:46;;;;;;;3.60;3.30;;;;;;;;;;5014217;28;20485;-70
2023/05/12 09:03:14;;;;;;;4.00;3.70;;;;;;;;;;5014332;28;20452;-70
2023/05/12 09:05:41;;;;;;;7.23;3.50;;;;;;;;;;5013918;28;20526;-70
2023/05/12 09:08:10;;;;;;;3.93;3.63;;;;;;;;;;5014236;28;20457;-70
2023/05/12 09:10:37;;;;;;;4.90;4.50;;;;;;;;;;5014019;28;20451;-70
2023/05/12 09:13:13;;;;;;;6.10;5.50;;;;;;;;;;5014106;28;20443;-70
2023/05/12 09:15:42;;;;;;;4.30;3.37;;;;;;;;;;5013969;28;20434;-70
2023/05/12 09:18:09;;;;;;;3.80;3.50;;;;;;;;;;5014558;28;20872;-71
2023/05/12 09:20:36;;;;;;;3.23;3.00;;;;;;;;;;5013749;28;20443;-72
2023/05/12 09:23:12;;;;;;;4.33;3.90;;;;;;;;;;5013975;28;20444;-72
2023/05/12 09:25:40;;;;;;;4.03;3.40;;;;;;;;;;5013947;28;20446;-72
2023/05/12 09:28:09;;;;;;;3.33;3.13;;;;;;;;;;5013935;28;20526;-71
2023/05/12 09:30:37;;;;;;;4.83;4.27;;;;;;;;;;5014567;28;20936;-71
2023/05/12 09:33:07;;;;;;;4.33;3.97;;;;;;;;;;5013858;28;20440;-71
2023/05/12 09:35:38;;;;;;;3.87;3.47;;;;;;;;;;5013778;28;20440;-70
2023/05/12 09:38:06;;;;;;;3.87;3.57;;;;;;;;;;5013406;28;20479;-71
2023/05/12 09:40:33;;;;;;;3.70;3.40;;;;;;;;;;5013597;28;20444;-71
2023/05/12 09:43:01;;;;;;;3.87;3.50;;;;;;;;;;5014240;28;20542;-71
2023/05/12 09:45:29;;;;;;;3.73;3.00;;;;;;;;;;5013383;28;20971;-71
2023/05/12 09:47:56;;;;;;;3.20;3.00;;;;;;;;;;5013890;28;20443;-71
2023/05/12 09:50:24;;;;;;;4.07;3.60;;;;;;;;;;5013491;28;20450;-71
2023/05/12 09:52:51;;;;;;;3.90;3.60;;;;;;;;;;5013485;28;20443;-71
2023/05/12 09:55:18;;;;;;;5.43;4.30;;;;;;;;;;5014031;28;20439;-71
2023/05/12 09:57:46;;;;;;;4.60;4.20;;;;;;;;;;5013263;28;20450;-71
2023/05/12 10:00:16;;;;;;;3.47;3.27;;;;;;;;;;5013125;28;20542;-71
2023/05/12 10:02:46;;;;;;;4.80;4.30;;;;;;;;;;5013182;28;20479;-71
2023/05/12 10:05:15;;;;;;;7.30;4.30;;;;;;;;;;5013315;28;20563;-71
2023/05/12 10:07:43;;;;;;;3.87;3.57;;;;;;;;;;5013449;28;20462;-71
2023/05/12 10:10:12;;;;;;;3.90;3.60;;;;;;;;;;5013153;28;20442;-71
2023/05/12 10:12:39;;;;;;;3.53;3.33;;;;;;;;;;5013507;28;20841;-71
2023/05/12 10:15:08;;;;;;;3.80;3.50;;;;;;;;;;5013230;28;20444;-71
2023/05/12 10:17:35;;;;;;;4.50;4.10;;;;;;;;;;5013199;28;20929;-71
2023/05/12 10:20:05;;;;;;;5.00;4.60;;;;;;;;;;5012913;28;20486;-71
2023/05/12 10:22:33;;;;;;;4.50;4.20;;;;;;;;;;5013430;28;20478;-71
2023/05/12 10:25:01;;;;;;;4.30;3.90;;;;;;;;;;5013266;28;20443;-70
2023/05/12 10:27:29;;;;;;;8.50;4.37;;;;;;;;;;5013083;28;20517;-71
2023/05/12 10:29:57;;;;;;;4.90;4.20;;;;;;;;;;5013724;28;20436;-70
2023/05/12 10:32:25;;;;;;;5.33;4.00;;;;;;;;;;5013222;28;20854;-71
2023/05/12 10:34:53;;;;;;;5.00;4.50;;;;;;;;;;5013177;28;20815;-70
2023/05/12 10:37:23;;;;;;;4.87;4.47;;;;;;;;;;5012448;28;20472;-71
2023/05/12 10:39:51;;;;;;;7.67;4.07;;;;;;;;;;5012848;28;20936;-71
2023/05/12 10:42:24;;;;;;;5.80;4.77;;;;;;;;;;5012683;28;21003;-71
2023/05/12 10:44:51;;;;;;;4.00;3.70;;;;;;;;;;5013369;28;20486;-70
2023/05/12 10:47:19;;;;;;;4.83;4.33;;;;;;;;;;5013144;28;20448;-71
2023/05/12 10:49:46;;;;;;;21.40;15.70;;;;;;;;;;5013040;28;20447;-71
2023/05/12 10:52:13;;;;;;;12.07;9.00;;;;;;;;;;5012746;28;20447;-72
2023/05/12 10:54:43;;;;;;;4.57;4.17;;;;;;;;;;5013615;28;20939;-72
2023/05/12 10:57:13;;;;;;;4.83;4.17;;;;;;;;;;5016902;28;20483;-72
2023/05/12 10:59:48;;;;;;;6.13;4.70;;;;;;;;;;5016761;28;20434;-73
2023/05/12 11:02:16;;;;;;;9.50;8.33;;;;;;;;;;5016722;28;20485;-72
2023/05/12 11:04:47;;;;;;;8.10;4.10;;;;;;;;;;5016691;28;20495;-72
2023/05/12 11:07:16;;;;;;;10.03;4.30;;;;;;;;;;5016430;28;20867;-72
2023/05/12 11:09:45;;;;;;;4.77;4.00;;;;;;;;;;5016089;28;20521;-72
2023/05/12 11:12:12;;;;;;;6.30;3.90;;;;;;;;;;5016565;28;20485;-72
2023/05/12 11:14:41;;;;;;;8.80;4.47;;;;;;;;;;5016581;28;20448;-72
2023/05/12 11:17:09;;;;;;;5.00;4.47;;;;;;;;;;5016195;28;20452;-72
2023/05/12 11:19:37;;;;;;;5.40;4.90;;;;;;;;;;5015989;28;20538;-72
2023/05/12 11:22:06;;;;;;;5.20;4.70;;;;;;;;;;5016352;28;20494;-72
2023/05/12 11:24:34;;;;;;;6.00;5.00;;;;;;;;;;5015801;28;20448;-71
2023/05/12 11:27:03;;;;;;;4.80;4.30;;;;;;;;;;5015810;28;20952;-72
2023/05/12 11:29:30;;;;;;;7.80;5.10;;;;;;;;;;5015826;28;20448;-72
2023/05/12 11:31:59;;;;;;;4.60;4.20;;;;;;;;;;5016035;28;20591;-71
2023/05/12 11:34:27;;;;;;;8.23;5.10;;;;;;;;;;5016176;28;20447;-72
2023/05/12 11:36:55;;;;;;;5.13;4.60;;;;;;;;;;5015533;28;20494;-73
2023/05/12 11:39:23;;;;;;;5.93;5.30;;;;;;;;;;5015944;28;20796;-73
2023/05/12 11:41:51;;;;;;;5.27;4.87;;;;;;;;;;5015724;28;20478;-73
2023/05/12 11:44:20;;;;;;;6.27;5.23;;;;;;;;;;5015535;28;20443;-70
2023/05/12 11:46:57;;;;;;;5.03;4.50;;;;;;;;;;5015975;28;20439;-72
2023/05/12 11:49:24;;;;;;;7.33;5.50;;;;;;;;;;5015739;28;20450;-72
2023/05/12 11:51:52;;;;;;;6.30;5.80;;;;;;;;;;5015347;28;20452;-72
2023/05/12 11:54:20;;;;;;;6.17;5.57;;;;;;;;;;5016067;28;20530;-71
2023/05/12 11:56:48;;;;;;;5.37;4.87;;;;;;;;;;5015742;28;20447;-71
2023/05/12 11:59:26;;;;;;;5.97;5.37;;;;;;;;;;5015856;28;20444;-72
2023/05/12 12:01:54;;;;;;;8.17;5.47;;;;;;;;;;5015357;28;20478;-72
2023/05/12 12:04:31;;;;;;;5.73;5.33;;;;;;;;;;5015717;28;20439;-72
2023/05/12 12:06:58;;;;;;;7.90;5.10;;;;;;;;;;5013958;28;20930;-71
2023/05/12 12:09:31;;;;;;;6.47;5.77;;;;;;;;;;5015368;28;20439;-72
2023/05/12 12:11:58;;;;;;;7.60;6.90;;;;;;;;;;5015514;28;20533;-70
2023/05/12 12:14:25;;;;;;;7.53;6.37;;;;;;;;;;5015186;28;20796;-71
2023/05/12 12:16:52;;;;;;;6.00;5.50;;;;;;;;;;5014705;28;20938;-72
2023/05/12 12:19:21;;;;;;;6.53;5.77;;;;;;;;;;5015091;28;20444;-83
2023/05/12 12:21:48;;;;;;;6.30;5.57;;;;;;;;;;5014502;28;20482;-69
2023/05/12 12:24:16;;;;;;;5.30;4.80;;;;;;;;;;5015408;28;20535;-68
2023/05/12 12:26:43;;;;;;;5.20;4.70;;;;;;;;;;5014692;28;20510;-69
2023/05/12 12:29:10;;;;;;;4.50;4.00;;;;;;;;;;5015556;28;20448;-67
2023/05/12 12:31:37;;;;;;;5.90;5.17;;;;;;;;;;5014117;28;20432;-70
2023/05/12 12:34:05;;;;;;;5.30;4.90;;;;;;;;;;5013568;28;20805;-68
2023/05/12 12:36:33;;;;;;;6.10;5.50;;;;;;;;;;5014431;28;21039;-69
2023/05/12 12:39:01;;;;;;;7.80;5.17;;;;;;;;;;5014557;28;20473;-68
2023/05/12 12:41:28;;;;;;;5.17;4.77;;;;;;;;;;5014363;28;20447;-69
2023/05/12 12:43:56;;;;;;;6.20;5.60;;;;;;;;;;5014636;28;20467;-69
2023/05/12 12:46:23;;;;;;;6.57;5.30;;;;;;;;;;5014904;28;20450;-69
2023/05/12 12:48:50;;;;;;;8.83;5.07;;;;;;;;;;5014041;28;20447;-70
2023/05/12 12:51:17;;;;;;;6.00;5.40;;;;;;;;;;5014442;28;20443;-68
2023/05/12 12:53:46;;;;;;;6.83;4.80;;;;;;;;;;5014059;28;20455;-68
2023/05/12 12:56:14;;;;;;;6.00;5.50;;;;;;;;;;5014142;28;20483;-70
2023/05/12 12:58:41;;;;;;;6.23;5.67;;;;;;;;;;5014222;28;20472;-69
2023/05/12 13:01:08;;;;;;;5.23;4.73;;;;;;;;;;5014351;28;20449;-69
2023/05/12 13:03:36;;;;;;;5.00;4.60;;;;;;;;;;5013978;28;20557;-69
2023/05/12 13:06:03;;;;;;;4.60;4.30;;;;;;;;;;5014130;28;20449;-68
2023/05/12 13:08:30;;;;;;;5.70;5.20;;;;;;;;;;5013792;28;20542;-68
2023/05/12 13:10:59;;;;;;;5.47;5.00;;;;;;;;;;5013844;28;20444;-69
2023/05/12 13:13:26;;;;;;;5.13;4.63;;;;;;;;;;5014008;28;20453;-68
2023/05/12 13:15:54;;;;;;;4.77;4.37;;;;;;;;;;5014104;28;20822;-68
2023/05/12 13:18:21;;;;;;;5.97;4.67;;;;;;;;;;5013315;28;20443;-69
2023/05/12 13:20:48;;;;;;;5.53;5.03;;;;;;;;;;5013656;28;20950;-68
2023/05/12 13:23:15;;;;;;;5.80;5.30;;;;;;;;;;5013446;28;20477;-68
2023/05/12 13:25:43;;;;;;;8.03;5.30;;;;;;;;;;5013451;28;20951;-68
2023/05/12 13:28:12;;;;;;;6.17;5.00;;;;;;;;;;5013658;28;20460;-68
2023/05/12 13:30:39;;;;;;;8.23;5.40;;;;;;;;;;5013522;28;20452;-68
2023/05/12 13:33:06;;;;;;;6.40;4.80;;;;;;;;;;5013778;28;20452;-68
2023/05/12 13:35:33;;;;;;;5.93;4.77;;;;;;;;;;5013514;28;20451;-68
2023/05/12 13:38:00;;;;;;;12.57;5.40;;;;;;;;;;5013707;28;20471;-69
2023/05/12 13:40:28;;;;;;;7.83;5.40;;;;;;;;;;5014062;28;20454;-69
2023/05/12 13:42:55;;;;;;;5.70;5.00;;;;;;;;;;5013221;28;20479;-69
2023/05/12 13:45:23;;;;;;;8.67;5.80;;;;;;;;;;5013138;28;20460;-69
2023/05/12 13:47:50;;;;;;;5.63;5.13;;;;;;;;;;5013100;28;20443;-69
2023/05/12 13:50:18;;;;;;;7.60;5.60;;;;;;;;;;5013440;28;20443;-69
2023/05/12 13:52:46;;;;;;;7.00;6.30;;;;;;;;;;5013663;28;20518;-68
2023/05/12 13:55:13;;;;;;;5.73;5.23;;;;;;;;;;5013451;28;20532;-69
2023/05/12 13:57:40;;;;;;;9.07;5.63;;;;;;;;;;5013506;28;20461;-68
2023/05/12 14:00:08;;;;;;;5.60;5.20;;;;;;;;;;5013239;28;20452;-69
2023/05/12 14:02:37;;;;;;;5.27;4.83;;;;;;;;;;5013529;28;20482;-68
2023/05/12 14:05:04;;;;;;;5.10;4.57;;;;;;;;;;5013203;28;20449;-68
2023/05/12 14:07:31;;;;;;;6.83;4.90;;;;;;;;;;5013444;28;20450;-68
2023/05/12 14:09:59;;;;;;;4.57;4.17;;;;;;;;;;5012871;28;20887;-69
2023/05/12 14:12:26;;;;;;;4.43;4.03;;;;;;;;;;5012963;28;20990;-69
2023/05/12 14:14:53;;;;;;;4.40;4.10;;;;;;;;;;5012986;28;20456;-69
2023/05/12 14:17:21;;;;;;;5.67;4.20;;;;;;;;;;5013594;28;20803;-68
2023/05/12 14:19:49;;;;;;;4.73;4.33;;;;;;;;;;5013193;28;20442;-68
2023/05/12 14:22:16;;;;;;;5.63;4.27;;;;;;;;;;5012743;28;20453;-69
2023/05/12 14:24:44;;;;;;;4.50;4.10;;;;;;;;;;5012253;28;20495;-69
2023/05/12 14:27:11;;;;;;;6.17;4.20;;;;;;;;;;5013152;28;20450;-68
2023/05/12 14:29:38;;;;;;;8.77;4.17;;;;;;;;;;5013098;28;20929;-69
2023/05/12 14:32:06;;;;;;;5.30;4.63;;;;;;;;;;5016870;28;20443;-68
2023/05/12 14:34:33;;;;;;;4.10;3.70;;;;;;;;;;5017232;28;20456;-69
2023/05/12 14:37:02;;;;;;;4.33;3.83;;;;;;;;;;5016685;28;20481;-69